AAL325 KDEN-TNCM
Flight info
| Callsign | AAL325 |
|---|---|
| Flight time | N/A |
| Altitude | 31000 |
| Route | EPKEE7 DUUZE Q150 EXHAS DCT WMICO DCT GRREY DCT FAYEE/N0460F330 DCT DUUCK DCT RRS DCT SPRNG DCT SATOW Y185 RENAH Y355 FOSAS/N0460F350 Y355 PLING DCT SLUGO |
| Aircraft | A321/M-SDE3FGHIRWY/LB1 |
Departure
| Time | 2026-05-01 13:23 |
|---|---|
| Airport | Denver International Airport (KDEN) |
Arrival
| Time | N/A |
|---|---|
| Airport | Princess Juliana International Airport (TNCM) |
| Time | Latitude | Longitude | Altitude | Speed | Heading |
|---|---|---|---|---|---|
| 2026-05-01 13:07 | 39.86238 | -104.67428 | 5357 ft | 0 kts | 351° |
| 2026-05-01 13:07 | 39.86236 | -104.67428 | 5362 ft | 2 kts | 350° |
| 2026-05-01 13:07 | 39.86211 | -104.67424 | 5365 ft | 4 kts | 356° |
| 2026-05-01 13:08 | 39.86184 | -104.67421 | 5365 ft | 4 kts | 352° |
| 2026-05-01 13:08 | 39.86158 | -104.67414 | 5364 ft | 4 kts | 339° |
| 2026-05-01 13:08 | 39.86138 | -104.67399 | 5364 ft | 4 kts | 295° |
| 2026-05-01 13:08 | 39.86134 | -104.67384 | 5363 ft | 1 kts | 271° |
| 2026-05-01 13:09 | 39.86134 | -104.67382 | 5363 ft | 0 kts | 271° |
| 2026-05-01 13:12 | 39.86134 | -104.67387 | 5364 ft | 3 kts | 271° |
| 2026-05-01 13:12 | 39.86135 | -104.67442 | 5365 ft | 9 kts | 270° |
| 2026-05-01 13:13 | 39.86136 | -104.67555 | 5365 ft | 16 kts | 271° |
| 2026-05-01 13:13 | 39.86139 | -104.67692 | 5366 ft | 14 kts | 270° |
| 2026-05-01 13:13 | 39.86139 | -104.67803 | 5364 ft | 11 kts | 270° |
| 2026-05-01 13:13 | 39.86139 | -104.67902 | 5366 ft | 13 kts | 270° |
| 2026-05-01 13:14 | 39.86141 | -104.68042 | 5366 ft | 17 kts | 271° |
| 2026-05-01 13:14 | 39.86141 | -104.68196 | 5366 ft | 18 kts | 271° |
| 2026-05-01 13:14 | 39.86144 | -104.68373 | 5366 ft | 20 kts | 269° |
| 2026-05-01 13:14 | 39.86108 | -104.68508 | 5364 ft | 14 kts | 212° |
| 2026-05-01 13:15 | 39.86037 | -104.68565 | 5365 ft | 12 kts | 247° |
| 2026-05-01 13:15 | 39.86038 | -104.68702 | 5365 ft | 20 kts | 273° |
| 2026-05-01 13:15 | 39.86041 | -104.68889 | 5366 ft | 19 kts | 265° |
| 2026-05-01 13:15 | 39.86050 | -104.69050 | 5365 ft | 18 kts | 296° |
| 2026-05-01 13:16 | 39.86164 | -104.69158 | 5365 ft | 21 kts | 329° |
| 2026-05-01 13:16 | 39.86280 | -104.69243 | 5362 ft | 18 kts | 332° |
| 2026-05-01 13:16 | 39.86378 | -104.69312 | 5364 ft | 15 kts | 329° |
| 2026-05-01 13:17 | 39.86622 | -104.69426 | 5365 ft | 23 kts | 359° |
| 2026-05-01 13:17 | 39.86822 | -104.69429 | 5362 ft | 31 kts | 359° |
| 2026-05-01 13:18 | 39.87241 | -104.69420 | 5366 ft | 29 kts | 358° |
| 2026-05-01 13:18 | 39.87440 | -104.69426 | 5365 ft | 28 kts | 0° |
| 2026-05-01 13:18 | 39.87632 | -104.69415 | 5366 ft | 27 kts | 4° |
| 2026-05-01 13:18 | 39.87820 | -104.69414 | 5365 ft | 27 kts | 0° |
| 2026-05-01 13:19 | 39.88005 | -104.69407 | 5364 ft | 26 kts | 3° |
| 2026-05-01 13:19 | 39.88189 | -104.69409 | 5365 ft | 27 kts | 359° |
| 2026-05-01 13:19 | 39.88611 | -104.69401 | 5364 ft | 34 kts | 359° |
| 2026-05-01 13:20 | 39.88836 | -104.69424 | 5364 ft | 31 kts | 15° |
| 2026-05-01 13:20 | 39.89051 | -104.69399 | 5363 ft | 31 kts | 359° |
| 2026-05-01 13:20 | 39.89264 | -104.69414 | 5365 ft | 31 kts | 355° |
| 2026-05-01 13:21 | 39.89572 | -104.69437 | 5364 ft | 14 kts | 296° |
| 2026-05-01 13:21 | 39.89564 | -104.69592 | 5365 ft | 21 kts | 235° |
| 2026-05-01 13:21 | 39.89433 | -104.69609 | 5363 ft | 19 kts | 180° |
| 2026-05-01 13:21 | 39.89281 | -104.69613 | 5367 ft | 29 kts | 180° |
| 2026-05-01 13:22 | 39.88855 | -104.69625 | 5364 ft | 91 kts | 180° |
| 2026-05-01 13:22 | 39.88488 | -104.69618 | 5365 ft | 117 kts | 179° |
| 2026-05-01 13:22 | 39.88369 | -104.69617 | 5366 ft | 124 kts | 180° |
| 2026-05-01 13:22 | 39.87351 | -104.69635 | 5366 ft | 167 kts | 181° |
| 2026-05-01 13:23 | 39.86077 | -104.69644 | 5478 ft | 194 kts | 182° |
| 2026-05-01 13:23 | 39.84752 | -104.69704 | 6254 ft | 185 kts | 184° |
| 2026-05-01 13:23 | 39.83494 | -104.69804 | 6954 ft | 176 kts | 183° |
| 2026-05-01 13:23 | 39.82305 | -104.69606 | 7270 ft | 181 kts | 158° |
| 2026-05-01 13:24 | 39.81378 | -104.68494 | 7319 ft | 191 kts | 118° |
| 2026-05-01 13:24 | 39.80741 | -104.66954 | 7591 ft | 196 kts | 117° |
| 2026-05-01 13:24 | 39.80085 | -104.65367 | 7828 ft | 203 kts | 118° |
| 2026-05-01 13:25 | 39.78554 | -104.62070 | 8057 ft | 225 kts | 122° |
| 2026-05-01 13:25 | 39.77658 | -104.60298 | 8070 ft | 245 kts | 122° |
| 2026-05-01 13:25 | 39.76686 | -104.58338 | 7985 ft | 272 kts | 121° |
| 2026-05-01 13:25 | 39.75768 | -104.56105 | 8030 ft | 290 kts | 114° |
| 2026-05-01 13:26 | 39.75086 | -104.53617 | 8571 ft | 290 kts | 103° |
| 2026-05-01 13:26 | 39.74658 | -104.51064 | 9234 ft | 289 kts | 100° |
| 2026-05-01 13:26 | 39.74272 | -104.48494 | 9831 ft | 291 kts | 100° |
| 2026-05-01 13:26 | 39.73858 | -104.45906 | 10004 ft | 295 kts | 101° |
| 2026-05-01 13:27 | 39.73386 | -104.43236 | 10012 ft | 305 kts | 102° |
| 2026-05-01 13:27 | 39.72873 | -104.40569 | 10023 ft | 311 kts | 103° |
| 2026-05-01 13:27 | 39.71731 | -104.35239 | 10347 ft | 315 kts | 105° |
| 2026-05-01 13:28 | 39.70418 | -104.29526 | 10593 ft | 349 kts | 105° |
| 2026-05-01 13:28 | 39.69789 | -104.26411 | 10702 ft | 364 kts | 102° |
| 2026-05-01 13:29 | 39.68810 | -104.19784 | 11373 ft | 379 kts | 98° |
| 2026-05-01 13:29 | 39.67956 | -104.12966 | 12341 ft | 386 kts | 98° |
| 2026-05-01 13:30 | 39.66076 | -103.98993 | 14285 ft | 400 kts | 99° |
| 2026-05-01 13:31 | 39.64284 | -103.92126 | 15185 ft | 408 kts | 117° |
| 2026-05-01 13:31 | 39.60249 | -103.82352 | 16591 ft | 416 kts | 117° |
| 2026-05-01 13:32 | 39.58005 | -103.75409 | 17456 ft | 421 kts | 109° |
| 2026-05-01 13:33 | 39.54963 | -103.64623 | 18692 ft | 429 kts | 109° |
| 2026-05-01 13:33 | 39.52891 | -103.57328 | 19402 ft | 434 kts | 109° |
| 2026-05-01 13:34 | 39.50797 | -103.49963 | 20099 ft | 438 kts | 109° |
| 2026-05-01 13:34 | 39.48689 | -103.42566 | 20780 ft | 443 kts | 109° |
| 2026-05-01 13:35 | 39.46544 | -103.35046 | 21430 ft | 448 kts | 109° |
| 2026-05-01 13:35 | 39.45458 | -103.31254 | 21741 ft | 451 kts | 109° |
| 2026-05-01 13:35 | 39.43265 | -103.23614 | 22384 ft | 455 kts | 109° |
| 2026-05-01 13:36 | 39.42158 | -103.19765 | 22691 ft | 458 kts | 109° |
| 2026-05-01 13:36 | 39.41049 | -103.15901 | 23003 ft | 460 kts | 109° |
| 2026-05-01 13:36 | 39.38803 | -103.08113 | 23614 ft | 464 kts | 109° |
| 2026-05-01 13:37 | 39.37668 | -103.04193 | 23884 ft | 467 kts | 110° |
| 2026-05-01 13:37 | 39.36525 | -103.00253 | 24112 ft | 470 kts | 110° |
| 2026-05-01 13:37 | 39.35374 | -102.96295 | 24329 ft | 472 kts | 110° |
| 2026-05-01 13:37 | 39.34002 | -102.92425 | 24536 ft | 475 kts | 117° |
| 2026-05-01 13:38 | 39.31011 | -102.84818 | 24954 ft | 481 kts | 117° |
| 2026-05-01 13:38 | 39.29493 | -102.80957 | 25169 ft | 483 kts | 117° |
| 2026-05-01 13:38 | 39.27973 | -102.77077 | 25360 ft | 486 kts | 117° |
| 2026-05-01 13:39 | 39.26441 | -102.73173 | 25562 ft | 489 kts | 117° |
| 2026-05-01 13:39 | 39.24899 | -102.69248 | 25759 ft | 492 kts | 117° |
| 2026-05-01 13:39 | 39.23350 | -102.65308 | 25979 ft | 494 kts | 117° |
| 2026-05-01 13:39 | 39.21787 | -102.61338 | 26191 ft | 497 kts | 118° |
| 2026-05-01 13:40 | 39.20214 | -102.57363 | 26428 ft | 499 kts | 118° |
| 2026-05-01 13:40 | 39.18636 | -102.53378 | 26737 ft | 499 kts | 118° |
| 2026-05-01 13:40 | 39.17056 | -102.49386 | 27011 ft | 500 kts | 118° |
| 2026-05-01 13:40 | 39.15475 | -102.45389 | 27268 ft | 502 kts | 119° |
| 2026-05-01 13:41 | 39.13883 | -102.41377 | 27519 ft | 503 kts | 119° |
| 2026-05-01 13:41 | 39.12285 | -102.37367 | 27775 ft | 504 kts | 119° |
| 2026-05-01 13:41 | 39.10676 | -102.33347 | 28021 ft | 506 kts | 120° |
| 2026-05-01 13:41 | 39.09058 | -102.29320 | 28264 ft | 507 kts | 120° |
| 2026-05-01 13:42 | 39.07455 | -102.25339 | 28504 ft | 508 kts | 120° |
| 2026-05-01 13:42 | 39.05825 | -102.21294 | 28733 ft | 510 kts | 120° |
| 2026-05-01 13:42 | 39.04192 | -102.17244 | 28965 ft | 511 kts | 121° |
| 2026-05-01 13:42 | 39.02553 | -102.13178 | 29195 ft | 513 kts | 121° |
| 2026-05-01 13:43 | 39.00910 | -102.09105 | 29437 ft | 514 kts | 121° |
| 2026-05-01 13:43 | 38.99261 | -102.05032 | 29685 ft | 514 kts | 121° |
| 2026-05-01 13:43 | 38.97604 | -102.00953 | 29930 ft | 515 kts | 121° |
| 2026-05-01 13:43 | 38.95944 | -101.96868 | 30180 ft | 516 kts | 121° |
| 2026-05-01 13:44 | 38.94282 | -101.92777 | 30398 ft | 517 kts | 121° |
| 2026-05-01 13:44 | 38.92619 | -101.88681 | 30602 ft | 517 kts | 122° |
| 2026-05-01 13:44 | 38.90953 | -101.84582 | 30812 ft | 518 kts | 122° |
| 2026-05-01 13:44 | 38.89285 | -101.80483 | 31028 ft | 518 kts | 122° |
| 2026-05-01 13:45 | 38.87610 | -101.76381 | 31151 ft | 520 kts | 122° |
| 2026-05-01 13:45 | 38.84265 | -101.68217 | 31172 ft | 521 kts | 122° |
| 2026-05-01 13:46 | 38.80881 | -101.60006 | 31171 ft | 521 kts | 122° |
| 2026-05-01 13:46 | 38.77498 | -101.51793 | 31166 ft | 521 kts | 122° |
| 2026-05-01 13:47 | 38.74114 | -101.43563 | 31162 ft | 522 kts | 122° |
| 2026-05-01 13:47 | 38.70735 | -101.35325 | 31159 ft | 523 kts | 122° |
| 2026-05-01 13:48 | 38.67357 | -101.27067 | 31154 ft | 524 kts | 122° |
| 2026-05-01 13:48 | 38.63981 | -101.18795 | 31168 ft | 525 kts | 122° |
| 2026-05-01 13:49 | 38.60613 | -101.10516 | 31181 ft | 525 kts | 122° |
| 2026-05-01 13:49 | 38.57243 | -101.02227 | 31194 ft | 525 kts | 122° |
| 2026-05-01 13:50 | 38.53877 | -100.93940 | 31199 ft | 526 kts | 122° |
| 2026-05-01 13:50 | 38.50533 | -100.85699 | 31197 ft | 526 kts | 122° |
| 2026-05-01 13:51 | 38.47172 | -100.77403 | 31192 ft | 527 kts | 122° |
| 2026-05-01 13:51 | 38.43812 | -100.69096 | 31176 ft | 527 kts | 122° |
| 2026-05-01 13:52 | 38.40455 | -100.60785 | 31164 ft | 527 kts | 122° |
| 2026-05-01 13:52 | 38.37104 | -100.52470 | 31147 ft | 527 kts | 122° |
| 2026-05-01 13:53 | 38.33757 | -100.44160 | 31134 ft | 527 kts | 122° |
| 2026-05-01 13:53 | 38.28745 | -100.31684 | 31136 ft | 527 kts | 122° |
| 2026-05-01 13:54 | 38.25411 | -100.23371 | 31132 ft | 528 kts | 122° |
| 2026-05-01 13:54 | 38.22102 | -100.15106 | 31128 ft | 528 kts | 121° |
| 2026-05-01 13:55 | 38.18779 | -100.06789 | 31125 ft | 528 kts | 121° |
| 2026-05-01 13:55 | 38.15462 | -99.98469 | 31122 ft | 527 kts | 121° |
| 2026-05-01 13:56 | 38.12157 | -99.90156 | 31117 ft | 527 kts | 121° |
| 2026-05-01 13:56 | 38.08864 | -99.81842 | 31113 ft | 527 kts | 121° |
| 2026-05-01 13:57 | 38.06136 | -99.74936 | 31108 ft | 526 kts | 121° |
| 2026-05-01 13:57 | 38.02315 | -99.65222 | 31096 ft | 526 kts | 121° |
| 2026-05-01 13:58 | 37.99061 | -99.56919 | 31092 ft | 525 kts | 121° |
| 2026-05-01 13:58 | 37.95843 | -99.48681 | 31084 ft | 525 kts | 121° |
| 2026-05-01 13:59 | 37.92619 | -99.40395 | 31078 ft | 524 kts | 121° |
| 2026-05-01 13:59 | 37.89410 | -99.32110 | 31073 ft | 523 kts | 121° |
| 2026-05-01 14:00 | 37.86221 | -99.23838 | 31068 ft | 523 kts | 121° |
| 2026-05-01 14:00 | 37.83050 | -99.15568 | 31066 ft | 522 kts | 121° |
| 2026-05-01 14:01 | 37.79897 | -99.07304 | 31066 ft | 521 kts | 121° |
| 2026-05-01 14:01 | 37.76766 | -98.99053 | 31067 ft | 520 kts | 121° |
| 2026-05-01 14:02 | 37.73668 | -98.90860 | 31071 ft | 520 kts | 121° |
| 2026-05-01 14:02 | 37.70568 | -98.82622 | 31074 ft | 519 kts | 121° |
| 2026-05-01 14:03 | 37.67479 | -98.74386 | 31068 ft | 519 kts | 121° |
| 2026-05-01 14:03 | 37.64400 | -98.66156 | 31063 ft | 518 kts | 121° |
| 2026-05-01 14:04 | 37.61335 | -98.57940 | 31046 ft | 517 kts | 121° |
| 2026-05-01 14:04 | 37.58795 | -98.51110 | 31025 ft | 517 kts | 120° |
| 2026-05-01 14:05 | 37.55258 | -98.41579 | 31010 ft | 516 kts | 120° |
| 2026-05-01 14:05 | 37.52218 | -98.33383 | 31000 ft | 516 kts | 120° |
| 2026-05-01 14:06 | 37.49182 | -98.25190 | 30999 ft | 516 kts | 120° |
| 2026-05-01 14:06 | 37.46151 | -98.17006 | 31000 ft | 516 kts | 120° |
| 2026-05-01 14:07 | 37.43122 | -98.08820 | 31000 ft | 516 kts | 120° |
| 2026-05-01 14:08 | 37.38609 | -97.96609 | 30997 ft | 515 kts | 120° |
| 2026-05-01 14:08 | 37.35591 | -97.88435 | 30995 ft | 515 kts | 120° |
| 2026-05-01 14:09 | 37.32583 | -97.80262 | 30986 ft | 516 kts | 120° |
| 2026-05-01 14:09 | 37.29585 | -97.72073 | 30983 ft | 516 kts | 120° |
| 2026-05-01 14:10 | 37.26599 | -97.63869 | 30985 ft | 517 kts | 120° |
| 2026-05-01 14:10 | 37.23629 | -97.55653 | 30984 ft | 517 kts | 120° |
| 2026-05-01 14:11 | 37.20686 | -97.47474 | 30987 ft | 518 kts | 120° |
| 2026-05-01 14:11 | 37.16263 | -97.35103 | 30977 ft | 519 kts | 120° |
| 2026-05-01 14:12 | 37.13327 | -97.26841 | 30971 ft | 519 kts | 120° |
| 2026-05-01 14:12 | 37.10406 | -97.18569 | 30972 ft | 520 kts | 120° |
| 2026-05-01 14:13 | 37.07989 | -97.11673 | 30972 ft | 520 kts | 120° |
| 2026-05-01 14:13 | 37.04615 | -97.01962 | 30965 ft | 521 kts | 120° |
| 2026-05-01 14:14 | 37.01770 | -96.93688 | 30960 ft | 521 kts | 120° |
| 2026-05-01 14:14 | 36.98922 | -96.85336 | 30947 ft | 522 kts | 120° |
| 2026-05-01 14:15 | 36.96092 | -96.76969 | 30942 ft | 522 kts | 119° |
| 2026-05-01 14:15 | 36.93281 | -96.68593 | 30933 ft | 523 kts | 119° |
| 2026-05-01 14:16 | 36.90485 | -96.60205 | 30932 ft | 523 kts | 119° |
| 2026-05-01 14:16 | 36.87725 | -96.51872 | 30923 ft | 523 kts | 119° |
| 2026-05-01 14:17 | 36.84958 | -96.43478 | 30921 ft | 522 kts | 119° |
| 2026-05-01 14:17 | 36.82204 | -96.35084 | 30921 ft | 522 kts | 119° |
| 2026-05-01 14:18 | 36.79468 | -96.26692 | 30923 ft | 522 kts | 119° |
| 2026-05-01 14:18 | 36.77203 | -96.19711 | 30927 ft | 522 kts | 119° |
| 2026-05-01 14:19 | 36.74030 | -96.09879 | 30930 ft | 523 kts | 119° |
| 2026-05-01 14:19 | 36.71331 | -96.01460 | 30918 ft | 524 kts | 119° |
| 2026-05-01 14:20 | 36.67321 | -95.88854 | 30912 ft | 525 kts | 119° |
| 2026-05-01 14:21 | 36.64653 | -95.80389 | 30897 ft | 525 kts | 119° |
| 2026-05-01 14:21 | 36.62005 | -95.71900 | 30885 ft | 527 kts | 118° |
| 2026-05-01 14:22 | 36.58069 | -95.59104 | 30867 ft | 529 kts | 118° |
| 2026-05-01 14:22 | 36.55469 | -95.50538 | 30865 ft | 530 kts | 118° |
| 2026-05-01 14:23 | 36.52888 | -95.41937 | 30855 ft | 531 kts | 118° |
| 2026-05-01 14:23 | 36.50345 | -95.33368 | 30854 ft | 533 kts | 118° |
| 2026-05-01 14:24 | 36.47803 | -95.24705 | 30849 ft | 534 kts | 118° |
| 2026-05-01 14:24 | 36.45282 | -95.16014 | 30844 ft | 535 kts | 118° |
| 2026-05-01 14:25 | 36.42783 | -95.07294 | 30836 ft | 536 kts | 118° |
| 2026-05-01 14:25 | 36.40308 | -94.98550 | 30838 ft | 537 kts | 118° |
| 2026-05-01 14:26 | 36.36635 | -94.85452 | 30833 ft | 539 kts | 118° |
| 2026-05-01 14:27 | 36.34197 | -94.76648 | 30831 ft | 540 kts | 118° |
| 2026-05-01 14:27 | 36.31780 | -94.67834 | 30826 ft | 541 kts | 118° |
| 2026-05-01 14:28 | 36.28183 | -94.54556 | 30831 ft | 542 kts | 118° |
| 2026-05-01 14:28 | 36.25804 | -94.45674 | 30832 ft | 543 kts | 118° |
| 2026-05-01 14:29 | 36.23439 | -94.36769 | 30818 ft | 545 kts | 118° |
| 2026-05-01 14:30 | 36.19140 | -94.20405 | 30816 ft | 547 kts | 117° |
| 2026-05-01 14:31 | 36.15642 | -94.06932 | 30806 ft | 549 kts | 117° |
| 2026-05-01 14:31 | 36.13321 | -93.97912 | 30799 ft | 551 kts | 117° |
| 2026-05-01 14:32 | 36.11014 | -93.88870 | 30793 ft | 552 kts | 117° |
| 2026-05-01 14:32 | 36.08731 | -93.79859 | 30781 ft | 553 kts | 117° |
| 2026-05-01 14:33 | 36.06438 | -93.70775 | 30776 ft | 554 kts | 117° |
| 2026-05-01 14:33 | 36.04144 | -93.61678 | 30775 ft | 555 kts | 117° |
| 2026-05-01 14:34 | 36.01849 | -93.52560 | 30770 ft | 556 kts | 117° |
| 2026-05-01 14:34 | 35.99551 | -93.43426 | 30761 ft | 557 kts | 117° |
| 2026-05-01 14:35 | 35.97251 | -93.34284 | 30757 ft | 558 kts | 117° |
| 2026-05-01 14:35 | 35.94947 | -93.25127 | 30758 ft | 559 kts | 117° |
| 2026-05-01 14:36 | 35.92658 | -93.16022 | 30750 ft | 560 kts | 117° |
| 2026-05-01 14:36 | 35.90343 | -93.06837 | 30743 ft | 561 kts | 117° |
| 2026-05-01 14:37 | 35.88017 | -92.97641 | 30744 ft | 562 kts | 117° |
| 2026-05-01 14:37 | 35.85689 | -92.88435 | 30737 ft | 563 kts | 117° |
| 2026-05-01 14:38 | 35.83361 | -92.79225 | 30737 ft | 563 kts | 117° |
| 2026-05-01 14:38 | 35.81030 | -92.70005 | 30738 ft | 564 kts | 116° |
| 2026-05-01 14:39 | 35.78697 | -92.60783 | 30735 ft | 564 kts | 116° |
| 2026-05-01 14:39 | 35.76359 | -92.51556 | 30738 ft | 564 kts | 116° |
| 2026-05-01 14:40 | 35.74024 | -92.42335 | 30738 ft | 564 kts | 116° |
| 2026-05-01 14:40 | 35.71698 | -92.33184 | 30732 ft | 564 kts | 116° |
| 2026-05-01 14:41 | 35.69351 | -92.23969 | 30721 ft | 565 kts | 116° |
| 2026-05-01 14:41 | 35.66996 | -92.14742 | 30717 ft | 566 kts | 116° |
| 2026-05-01 14:42 | 35.64637 | -92.05516 | 30706 ft | 566 kts | 116° |
| 2026-05-01 14:42 | 35.62270 | -91.96294 | 30705 ft | 566 kts | 116° |
| 2026-05-01 14:43 | 35.59895 | -91.87073 | 30703 ft | 566 kts | 116° |
| 2026-05-01 14:43 | 35.57513 | -91.77856 | 30697 ft | 566 kts | 116° |
| 2026-05-01 14:44 | 35.55124 | -91.68641 | 30697 ft | 566 kts | 116° |
| 2026-05-01 14:44 | 35.51546 | -91.54887 | 30686 ft | 567 kts | 116° |
| 2026-05-01 14:45 | 35.47942 | -91.41067 | 30683 ft | 567 kts | 116° |
| 2026-05-01 14:46 | 35.45534 | -91.31843 | 30678 ft | 568 kts | 116° |
| 2026-05-01 14:46 | 35.41918 | -91.17992 | 30668 ft | 569 kts | 116° |
| 2026-05-01 14:47 | 35.39505 | -91.08745 | 30660 ft | 570 kts | 116° |
| 2026-05-01 14:48 | 35.35876 | -90.94871 | 30639 ft | 570 kts | 115° |
| 2026-05-01 14:48 | 35.32240 | -90.80998 | 30621 ft | 571 kts | 115° |
| 2026-05-01 14:49 | 35.27377 | -90.62561 | 30609 ft | 571 kts | 115° |
| 2026-05-01 14:50 | 35.22456 | -90.44065 | 30590 ft | 572 kts | 115° |
| 2026-05-01 14:51 | 35.18736 | -90.30194 | 30587 ft | 572 kts | 115° |
| 2026-05-01 14:52 | 35.15001 | -90.16330 | 30580 ft | 573 kts | 115° |
| 2026-05-01 14:53 | 35.11255 | -90.02465 | 30574 ft | 573 kts | 115° |
| 2026-05-01 14:53 | 35.08753 | -89.93232 | 30567 ft | 572 kts | 115° |
| 2026-05-01 14:54 | 35.06249 | -89.84015 | 30551 ft | 572 kts | 115° |
| 2026-05-01 14:54 | 35.03743 | -89.74808 | 30545 ft | 572 kts | 115° |
| 2026-05-01 14:55 | 35.01253 | -89.65664 | 30541 ft | 572 kts | 115° |
| 2026-05-01 14:55 | 34.98747 | -89.56468 | 30537 ft | 572 kts | 115° |
| 2026-05-01 14:56 | 34.96240 | -89.47266 | 30530 ft | 572 kts | 115° |
| 2026-05-01 14:56 | 34.93733 | -89.38069 | 30527 ft | 572 kts | 115° |
| 2026-05-01 14:57 | 34.91229 | -89.28880 | 30521 ft | 572 kts | 114° |
| 2026-05-01 14:57 | 34.87472 | -89.15094 | 30507 ft | 572 kts | 114° |
| 2026-05-01 14:58 | 34.84967 | -89.05909 | 30502 ft | 572 kts | 114° |
| 2026-05-01 14:58 | 34.82459 | -88.96733 | 30496 ft | 571 kts | 114° |
| 2026-05-01 14:59 | 34.79951 | -88.87564 | 30497 ft | 571 kts | 114° |
| 2026-05-01 14:59 | 34.77463 | -88.78474 | 30490 ft | 570 kts | 114° |
| 2026-05-01 15:00 | 34.73711 | -88.64761 | 30486 ft | 569 kts | 114° |
| 2026-05-01 15:01 | 34.71225 | -88.55645 | 30478 ft | 568 kts | 114° |
| 2026-05-01 15:01 | 34.68751 | -88.46532 | 30468 ft | 567 kts | 114° |
| 2026-05-01 15:02 | 34.66294 | -88.37435 | 30455 ft | 566 kts | 114° |
| 2026-05-01 15:02 | 34.63856 | -88.28344 | 30440 ft | 566 kts | 114° |
| 2026-05-01 15:03 | 34.61434 | -88.19258 | 30432 ft | 565 kts | 114° |
| 2026-05-01 15:03 | 34.59029 | -88.10187 | 30429 ft | 564 kts | 114° |
| 2026-05-01 15:04 | 34.56639 | -88.01125 | 30416 ft | 564 kts | 114° |
| 2026-05-01 15:04 | 34.54264 | -87.92068 | 30412 ft | 563 kts | 114° |
| 2026-05-01 15:05 | 34.51902 | -87.83011 | 30408 ft | 563 kts | 113° |
| 2026-05-01 15:05 | 34.49561 | -87.74019 | 30412 ft | 562 kts | 113° |
| 2026-05-01 15:06 | 34.47211 | -87.64984 | 30400 ft | 562 kts | 113° |
| 2026-05-01 15:06 | 34.44868 | -87.55957 | 30391 ft | 562 kts | 113° |
| 2026-05-01 15:07 | 34.42532 | -87.46931 | 30373 ft | 561 kts | 113° |
| 2026-05-01 15:07 | 34.40208 | -87.37915 | 30367 ft | 560 kts | 113° |
| 2026-05-01 15:08 | 34.37899 | -87.28918 | 30361 ft | 559 kts | 113° |
| 2026-05-01 15:08 | 34.35609 | -87.19950 | 30365 ft | 557 kts | 113° |
| 2026-05-01 15:09 | 34.33333 | -87.11015 | 30371 ft | 555 kts | 113° |
| 2026-05-01 15:09 | 34.31069 | -87.02097 | 30375 ft | 553 kts | 113° |
| 2026-05-01 15:10 | 34.28828 | -86.93205 | 30380 ft | 552 kts | 113° |
| 2026-05-01 15:10 | 34.25495 | -86.79904 | 30376 ft | 550 kts | 113° |
| 2026-05-01 15:11 | 34.22220 | -86.66708 | 30361 ft | 548 kts | 112° |
| 2026-05-01 15:12 | 34.20052 | -86.57901 | 30353 ft | 547 kts | 112° |
| 2026-05-01 15:12 | 34.16798 | -86.44716 | 30347 ft | 546 kts | 112° |
| 2026-05-01 15:14 | 34.11382 | -86.22776 | 30345 ft | 545 kts | 112° |
| 2026-05-01 15:14 | 34.08133 | -86.09631 | 30342 ft | 545 kts | 112° |
| 2026-05-01 15:15 | 34.03793 | -85.92091 | 30330 ft | 546 kts | 112° |
| 2026-05-01 15:16 | 33.99453 | -85.74541 | 30305 ft | 546 kts | 112° |
| 2026-05-01 15:18 | 33.94042 | -85.52624 | 30262 ft | 546 kts | 112° |
| 2026-05-01 15:19 | 33.89734 | -85.35123 | 30253 ft | 545 kts | 112° |
| 2026-05-01 15:19 | 33.86528 | -85.22057 | 30247 ft | 545 kts | 112° |
| 2026-05-01 15:20 | 33.83304 | -85.08920 | 30248 ft | 546 kts | 111° |
| 2026-05-01 15:21 | 33.81154 | -85.00156 | 30246 ft | 547 kts | 111° |
| 2026-05-01 15:21 | 33.79003 | -84.91383 | 30239 ft | 547 kts | 111° |
| 2026-05-01 15:22 | 33.75771 | -84.78215 | 30225 ft | 548 kts | 111° |
| 2026-05-01 15:22 | 33.73608 | -84.69427 | 30215 ft | 549 kts | 111° |
| 2026-05-01 15:23 | 33.71437 | -84.60636 | 30215 ft | 549 kts | 111° |
| 2026-05-01 15:23 | 33.69257 | -84.51839 | 30212 ft | 550 kts | 111° |
| 2026-05-01 15:24 | 33.67072 | -84.43041 | 30218 ft | 550 kts | 111° |
| 2026-05-01 15:24 | 33.64879 | -84.34237 | 30216 ft | 550 kts | 111° |
| 2026-05-01 15:25 | 33.62680 | -84.25433 | 30208 ft | 551 kts | 111° |
| 2026-05-01 15:25 | 33.60478 | -84.16630 | 30202 ft | 551 kts | 111° |
| 2026-05-01 15:26 | 33.58642 | -84.09308 | 30193 ft | 552 kts | 111° |
| 2026-05-01 15:26 | 33.56072 | -83.99056 | 30194 ft | 552 kts | 111° |
| 2026-05-01 15:27 | 33.53876 | -83.90231 | 30187 ft | 553 kts | 111° |
| 2026-05-01 15:28 | 33.50959 | -83.78408 | 30178 ft | 553 kts | 111° |
| 2026-05-01 15:28 | 33.48788 | -83.69570 | 30170 ft | 553 kts | 111° |
| 2026-05-01 15:29 | 33.45563 | -83.56356 | 30155 ft | 553 kts | 111° |
| 2026-05-01 15:30 | 33.41595 | -83.40094 | 30148 ft | 554 kts | 111° |
| 2026-05-01 15:31 | 33.34777 | -83.12098 | 30131 ft | 554 kts | 110° |
| 2026-05-01 15:32 | 33.30432 | -82.94393 | 30117 ft | 555 kts | 110° |
| 2026-05-01 15:34 | 33.23841 | -82.67871 | 30100 ft | 556 kts | 110° |